Time;durP1;ratioP1;P1;durP2;ratioP2;P2;SDS_P1;SDS_P2;PMS_P1;PMS_P2;Temp;Humidity;BMP_temperature;BMP_pressure;BME280_temperature;BME280_humidity;BME280_pressure;Samples;Min_cycle;Max_cycle;Signal;HPM_P1;HPM_P2
2023/01/05 00:01:13;;;;;;;;;;;;;;;25.79;42.16;95095.75;4928282;28;7406;-71
2023/01/05 00:03:52;;;;;;;;;;;;;;;25.79;42.48;95093.00;4916791;28;7006;-72
2023/01/05 00:06:28;;;;;;;;;;;;;;;25.80;41.85;95094.47;4908402;29;7240;-71
2023/01/05 00:08:58;;;;;;;;;;;;;;;25.79;41.80;95086.72;4918902;28;9053;-72
2023/01/05 00:22:52;;;;;;;;;;;;;;;25.80;41.98;95060.66;4971064;28;9432;-71
2023/01/05 00:25:21;;;;;;;;;;;;;;;25.78;42.40;95052.88;4954791;28;7103;-71
2023/01/05 00:27:57;;;;;;;;;;;;;;;25.79;42.24;95059.91;4972777;28;8184;-71
2023/01/05 00:31:00;;;;;;;;;;;;;;;25.79;41.63;95056.41;4975624;28;9343;-71
2023/01/05 00:33:35;;;;;;;;;;;;;;;25.78;42.03;95061.16;4975411;28;9368;-71
2023/01/05 00:36:08;;;;;;;;;;;;;;;25.80;42.32;95057.91;4972970;28;7653;-71
2023/01/05 00:38:37;;;;;;;;;;;;;;;25.77;42.61;95048.66;4974627;28;7036;-71
2023/01/05 00:41:03;;;;;;;;;;;;;;;25.77;41.91;95051.41;4969247;28;7577;-71
2023/01/05 00:43:29;;;;;;;;;;;;;;;25.76;42.28;95055.38;4970605;28;9430;-71
2023/01/05 00:45:54;;;;;;;;;;;;;;;25.78;41.68;95049.38;4969510;28;9256;-71
2023/01/05 00:48:24;;;;;;;;;;;;;;;25.78;42.21;95038.34;4983154;28;9372;-71
2023/01/05 00:51:08;;;;;;;;;;;;;;;25.78;42.17;95041.88;4970452;28;8948;-71
2023/01/05 00:53:38;;;;;;;;;;;;;;;25.79;41.74;95029.59;4950774;28;7072;-71
2023/01/05 00:56:05;;;;;;;;;;;;;;;25.79;42.01;95037.13;4970334;28;9015;-71
2023/01/05 00:58:36;;;;;;;;;;;;;;;25.76;42.54;95027.06;4974645;28;7121;-71
2023/01/05 01:01:14;;;;;;;;;;;;;;;25.76;42.50;95025.06;4979411;28;7042;-71
2023/01/05 01:03:43;;;;;;;;;;;;;;;25.76;42.16;95014.06;4980796;28;8571;-71
2023/01/05 01:06:36;;;;;;;;;;;;;;;25.78;41.64;95022.56;4959445;28;7032;-71
2023/01/05 01:09:19;;;;;;;;;;;;;;;25.79;41.84;95018.59;4897975;29;7382;-71
2023/01/05 01:11:57;;;;;;;;;;;;;;;25.77;41.71;95012.06;4898971;29;7361;-71
2023/01/05 01:14:24;;;;;;;;;;;;;;;25.79;42.26;95013.06;4898182;29;7088;-72
2023/01/05 01:16:50;;;;;;;;;;;;;;;25.76;41.98;95008.53;4901430;29;7280;-71
2023/01/05 01:19:19;;;;;;;;;;;;;;;25.78;41.93;95003.28;4912374;29;7206;-71
2023/01/05 01:21:55;;;;;;;;;;;;;;;25.76;42.24;95003.03;4906448;29;9425;-71
2023/01/05 01:24:59;;;;;;;;;;;;;;;25.78;41.88;95003.28;4897359;29;9571;-72
2023/01/05 01:27:56;;;;;;;;;;;;;;;25.78;42.12;94995.03;4858760;29;9050;-72
2023/01/05 01:31:00;;;;;;;;;;;;;;;25.78;42.59;95000.53;4847140;29;8719;-71
2023/01/05 01:33:38;;;;;;;;;;;;;;;25.78;41.55;94994.25;4838221;29;7290;-71
2023/01/05 01:36:06;;;;;;;;;;;;;;;25.76;41.57;94991.25;4834332;29;7148;-71
2023/01/05 01:38:33;;;;;;;;;;;;;;;25.72;42.11;94985.25;4824180;29;7124;-71
2023/01/05 01:41:02;;;;;;;;;;;;;;;25.70;42.55;94983.00;4836926;29;7330;-71
2023/01/05 01:43:52;;;;;;;;;;;;;;;25.70;42.23;94994.00;4832141;29;7966;-71
2023/01/05 01:46:25;;;;;;;;;;;;;;;25.67;42.15;94989.47;4854832;29;7603;-71
2023/01/05 01:48:58;;;;;;;;;;;;;;;25.68;42.46;94996.50;4874048;29;8990;-71
2023/01/05 01:51:43;;;;;;;;;;;;;;;25.68;42.47;94999.25;4873852;29;8758;-71
2023/01/05 01:54:18;;;;;;;;;;;;;;;25.69;42.07;94998.00;4873831;29;9384;-71
2023/01/05 01:56:54;;;;;;;;;;;;;;;25.70;41.90;94999.53;4869021;29;8078;-71
2023/01/05 01:59:22;;;;;;;;;;;;;;;25.68;42.69;94998.50;4872899;29;7045;-71
2023/01/05 02:01:56;;;;;;;;;;;;;;;25.68;41.62;94990.25;4883547;29;8611;-71
2023/01/05 02:04:24;;;;;;;;;;;;;;;25.65;42.25;94978.22;4894293;29;8621;-72
2023/01/05 02:06:52;;;;;;;;;;;;;;;25.68;41.68;94991.00;4938765;28;7250;-71
2023/01/05 02:09:19;;;;;;;;;;;;;;;25.69;42.10;94995.25;4979977;28;8718;-71
2023/01/05 02:12:05;;;;;;;;;;;;;;;25.69;41.82;94986.97;4957038;28;7265;-72
2023/01/05 02:14:37;;;;;;;;;;;;;;;25.70;42.55;94982.22;4962983;28;7198;-71
2023/01/05 02:17:05;;;;;;;;;;;;;;;25.68;41.60;94985.50;4976679;28;7099;-71
2023/01/05 02:20:21;;;;;;;;;;;;;;;25.69;41.79;94992.50;4954553;28;9360;-71
2023/01/05 02:23:11;;;;;;;;;;;;;;;25.69;42.27;94986.97;4973111;28;9129;-71
2023/01/05 02:26:06;;;;;;;;;;;;;;;25.69;42.57;94986.97;4967590;28;8503;-71
2023/01/05 02:28:53;;;;;;;;;;;;;;;25.69;42.04;94988.97;4965043;28;9350;-71
2023/01/05 02:31:52;;;;;;;;;;;;;;;25.68;42.16;94984.72;4971643;28;7289;-72
2023/01/05 02:35:09;;;;;;;;;;;;;;;25.65;42.85;94974.69;4958756;28;7388;-71
2023/01/05 02:37:58;;;;;;;;;;;;;;;25.63;41.77;94977.94;4963492;28;8738;-71
2023/01/05 02:40:33;;;;;;;;;;;;;;;25.61;42.96;94972.19;4950579;28;7053;-72
2023/01/05 02:43:04;;;;;;;;;;;;;;;25.60;42.05;94965.16;4937266;28;9740;-71
2023/01/05 02:45:30;;;;;;;;;;;;;;;25.59;42.07;94960.91;4946052;28;9048;-71
2023/01/05 02:48:13;;;;;;;;;;;;;;;25.64;42.60;94951.16;4950670;28;9102;-71
2023/01/05 02:51:06;;;;;;;;;;;;;;;25.60;41.94;94943.13;4965163;28;7024;-71
2023/01/05 02:53:43;;;;;;;;;;;;;;;25.58;42.53;94953.88;4937592;28;7061;-71
2023/01/05 02:56:35;;;;;;;;;;;;;;;25.63;42.49;94944.91;4967216;28;7128;-71
2023/01/05 02:59:11;;;;;;;;;;;;;;;25.66;42.79;94945.91;4943578;28;9138;-72
2023/01/05 03:01:46;;;;;;;;;;;;;;;25.66;42.28;94949.41;4943215;28;7250;-72
2023/01/05 03:04:41;;;;;;;;;;;;;;;25.66;42.75;94954.94;4940099;28;7090;-71
2023/01/05 03:07:17;;;;;;;;;;;;;;;25.66;42.13;94954.94;4940447;28;9025;-72
2023/01/05 03:09:45;;;;;;;;;;;;;;;25.67;42.31;94963.94;4934332;28;7201;-72
2023/01/05 03:15:17;;;;;;;;;;;;;;;25.66;41.69;94954.16;4968219;28;7200;-72
2023/01/05 03:17:50;;;;;;;;;;;;;;;25.66;41.99;94954.16;4972728;28;9317;-73
2023/01/05 03:20:25;;;;;;;;;;;;;;;25.68;42.37;94951.66;4970769;28;7909;-73
2023/01/05 03:35:32;;;;;;;;;;;;;;;25.62;42.62;94956.41;4928426;29;7197;-72
2023/01/05 03:38:10;;;;;;;;;;;;;;;25.63;42.39;94944.13;4919162;29;7663;-72
2023/01/05 03:40:39;;;;;;;;;;;;;;;25.65;42.80;94966.44;4933563;29;9453;-72
2023/01/05 03:43:07;;;;;;;;;;;;;;;25.65;42.77;94966.44;4926806;29;7287;-72
2023/01/05 03:45:44;;;;;;;;;;;;;;;25.62;42.77;94942.66;4931454;29;7047;-72
2023/01/05 03:48:11;;;;;;;;;;;;;;;25.64;41.94;94951.91;4914618;29;7286;-72
2023/01/05 03:50:57;;;;;;;;;;;;;;;25.65;42.46;94949.91;4935095;29;7310;-72
2023/01/05 03:53:39;;;;;;;;;;;;;;;25.63;42.58;94947.66;4931215;29;9080;-72
2023/01/05 03:56:08;;;;;;;;;;;;;;;25.63;42.40;94955.91;4928197;29;7677;-72
2023/01/05 03:58:36;;;;;;;;;;;;;;;25.62;42.29;94953.66;4926571;29;7354;-72
2023/01/05 04:01:02;;;;;;;;;;;;;;;25.64;42.42;94951.91;4912646;29;8857;-72
2023/01/05 04:03:59;;;;;;;;;;;;;;;25.64;42.25;94949.16;4919651;29;7150;-72
2023/01/05 04:06:50;;;;;;;;;;;;;;;25.64;42.74;94940.91;4897160;29;8244;-71
2023/01/05 04:09:30;;;;;;;;;;;;;;;25.65;42.45;94941.63;4882259;29;7283;-72
2023/01/05 04:12:11;;;;;;;;;;;;;;;25.64;41.98;94940.16;4911437;28;8409;-72
2023/01/05 04:14:39;;;;;;;;;;;;;;;25.65;42.48;94941.63;4939840;28;7801;-72
2023/01/05 04:17:05;;;;;;;;;;;;;;;25.64;42.17;94946.41;4938537;28;9016;-72
2023/01/05 04:19:31;;;;;;;;;;;;;;;25.64;41.91;94946.41;4938569;28;8991;-72
2023/01/05 04:21:57;;;;;;;;;;;;;;;25.65;42.48;94950.66;4936356;28;9390;-72
2023/01/05 04:25:00;;;;;;;;;;;;;;;25.66;41.79;94954.16;4936371;28;7258;-72
2023/01/05 04:27:26;;;;;;;;;;;;;;;25.65;42.56;94953.41;4878264;29;9123;-72
2023/01/05 04:29:57;;;;;;;;;;;;;;;25.66;42.43;94951.41;4872733;29;9689;-72
2023/01/05 04:32:39;;;;;;;;;;;;;;;25.66;42.23;94946.66;4884167;29;7034;-72
2023/01/05 04:35:05;;;;;;;;;;;;;;;25.65;42.59;94944.38;4877880;29;7039;-72
2023/01/05 04:38:03;;;;;;;;;;;;;;;25.66;42.31;94954.16;4882268;29;7020;-72
2023/01/05 04:40:31;;;;;;;;;;;;;;;25.64;42.69;94948.41;4869806;29;7456;-72
2023/01/05 04:43:06;;;;;;;;;;;;;;;25.64;42.09;94940.91;4865176;29;8672;-72
2023/01/05 04:45:33;;;;;;;;;;;;;;;25.63;42.24;94939.38;4869147;29;9064;-71
2023/01/05 04:47:59;;;;;;;;;;;;;;;25.64;42.63;94943.66;4892526;29;7327;-72
2023/01/05 04:50:34;;;;;;;;;;;;;;;25.65;43.02;94938.88;4892368;29;9350;-73
2023/01/05 04:53:06;;;;;;;;;;;;;;;25.65;41.83;94945.16;4892183;29;7222;-72
2023/01/05 04:55:35;;;;;;;;;;;;;;;25.64;42.40;94959.44;4881301;29;9151;-72
2023/01/05 04:58:22;;;;;;;;;;;;;;;25.65;42.20;94953.41;4895420;29;9473;-72
2023/01/05 05:00:50;;;;;;;;;;;;;;;25.65;42.75;94956.16;4904067;29;9649;-72
2023/01/05 05:03:18;;;;;;;;;;;;;;;25.65;41.84;94947.91;4916560;29;7033;-72
2023/01/05 05:05:45;;;;;;;;;;;;;;;25.65;42.27;94950.66;4915901;29;9028;-71
2023/01/05 05:08:18;;;;;;;;;;;;;;;25.64;42.64;94951.91;4914986;29;9145;-72
2023/01/05 05:10:46;;;;;;;;;;;;;;;25.65;42.17;94958.91;4928978;29;8794;-72
2023/01/05 05:13:15;;;;;;;;;;;;;;;25.66;42.07;94965.94;4916938;29;6993;-71
2023/01/05 05:15:44;;;;;;;;;;;;;;;25.65;42.40;94961.69;4947749;28;7055;-72
2023/01/05 05:18:10;;;;;;;;;;;;;;;25.66;42.04;94967.94;4959186;28;7455;-72
2023/01/05 05:20:42;;;;;;;;;;;;;;;25.65;42.26;94950.66;4968156;28;7036;-72
2023/01/05 05:23:08;;;;;;;;;;;;;;;25.68;42.23;94951.66;4980295;28;7031;-72
2023/01/05 05:25:34;;;;;;;;;;;;;;;25.67;41.80;94956.41;4979919;28;7496;-72
2023/01/05 05:28:00;;;;;;;;;;;;;;;25.67;42.03;94961.16;4986625;28;7034;-72
2023/01/05 05:30:33;;;;;;;;;;;;;;;25.65;42.13;94958.91;4981643;28;7257;-72
2023/01/05 05:33:00;;;;;;;;;;;;;;;25.65;41.88;94963.69;4972278;28;9086;-72
2023/01/05 05:35:27;;;;;;;;;;;;;;;25.65;42.64;94963.69;4971963;28;7568;-72
2023/01/05 05:37:52;;;;;;;;;;;;;;;25.65;42.41;94953.41;4982869;28;7041;-71
2023/01/05 05:40:19;;;;;;;;;;;;;;;25.62;42.65;94946.13;4971602;28;7340;-72
2023/01/05 05:42:45;;;;;;;;;;;;;;;25.65;41.84;94958.91;4964204;28;7266;-72
2023/01/05 05:45:11;;;;;;;;;;;;;;;25.65;42.66;94945.16;4980160;28;8626;-72
2023/01/05 05:47:43;;;;;;;;;;;;;;;25.67;42.35;94950.91;4976879;28;9516;-72
2023/01/05 05:50:11;;;;;;;;;;;;;;;25.65;42.36;94945.16;4971568;28;8816;-72
2023/01/05 05:52:49;;;;;;;;;;;;;;;25.64;42.29;94962.94;4963533;28;8608;-71
2023/01/05 05:55:19;;;;;;;;;;;;;;;25.65;41.80;94969.19;4979744;28;9303;-72
2023/01/05 05:57:48;;;;;;;;;;;;;;;25.65;42.97;94975.44;4966858;28;9640;-71
2023/01/05 06:00:17;;;;;;;;;;;;;;;25.62;42.68;94976.44;4964972;28;7512;-71
2023/01/05 06:02:46;;;;;;;;;;;;;;;25.61;42.58;94980.44;4987704;28;8060;-72
2023/01/05 06:05:12;;;;;;;;;;;;;;;25.62;42.11;94976.44;4959725;28;7417;-71
2023/01/05 06:07:40;;;;;;;;;;;;;;;25.61;42.35;94982.44;4983080;28;6848;-71
2023/01/05 06:10:07;;;;;;;;;;;;;;;25.61;42.04;94985.97;4987318;28;8621;-70
2023/01/05 06:12:37;;;;;;;;;;;;;;;25.63;42.25;94986.22;4966730;28;7023;-71
2023/01/05 06:15:09;;;;;;;;;;;;;;;25.61;42.00;94982.44;4971434;28;9413;-71
2023/01/05 06:17:34;;;;;;;;;;;;;;;25.64;42.37;94989.72;4968124;28;8761;-71
2023/01/05 06:20:07;;;;;;;;;;;;;;;25.64;42.78;94996.00;4963880;28;7030;-70
2023/01/05 06:22:34;;;;;;;;;;;;;;;25.63;42.67;94988.97;4981836;28;8811;-70
2023/01/05 06:25:00;;;;;;;;;;;;;;;25.64;42.52;94998.75;4963526;28;7512;-71
2023/01/05 06:27:26;;;;;;;;;;;;;;;25.63;42.53;94997.25;4964652;28;7379;-71
2023/01/05 06:29:52;;;;;;;;;;;;;;;25.63;42.05;94994.47;4972838;28;7116;-71
2023/01/05 06:32:18;;;;;;;;;;;;;;;25.64;42.09;94996.00;4969210;28;7257;-71
2023/01/05 06:34:48;;;;;;;;;;;;;;;25.62;41.99;94998.47;4973735;28;9688;-71
2023/01/05 06:37:14;;;;;;;;;;;;;;;25.63;41.86;95002.00;4963464;28;9060;-71
2023/01/05 06:39:40;;;;;;;;;;;;;;;25.63;42.67;95004.75;4969553;28;7210;-70
2023/01/05 06:42:09;;;;;;;;;;;;;;;25.65;42.51;94994.72;4967561;28;7305;-72
2023/01/05 06:44:35;;;;;;;;;;;;;;;25.65;42.65;94997.50;4971342;28;7281;-71
2023/01/05 06:47:04;;;;;;;;;;;;;;;25.64;42.86;94995.25;4973274;28;7243;-71
2023/01/05 06:49:34;;;;;;;;;;;;;;;25.66;42.68;94995.50;4964704;28;9054;-71
2023/01/05 06:52:05;;;;;;;;;;;;;;;25.63;43.10;94988.97;4976270;28;7330;-72
2023/01/05 06:54:33;;;;;;;;;;;;;;;25.65;42.39;94986.47;4969330;28;9126;-72
2023/01/05 06:57:01;;;;;;;;;;;;;;;25.64;42.28;94993.25;4957469;28;9091;-72
2023/01/05 06:59:27;;;;;;;;;;;;;;;25.65;42.78;94985.72;4984424;28;7027;-72
2023/01/05 07:01:55;;;;;;;;;;;;;;;25.66;42.44;94996.25;4958088;28;7388;-72
2023/01/05 07:04:21;;;;;;;;;;;;;;;25.67;42.76;94991.47;4964425;28;7371;-72
2023/01/05 07:06:47;;;;;;;;;;;;;;;25.65;42.01;94991.97;4967545;28;8978;-71
2023/01/05 07:09:15;;;;;;;;;;;;;;;25.71;41.99;95000.28;4968934;28;7042;-71
2023/01/05 07:11:44;;;;;;;;;;;;;;;25.71;42.51;95001.00;4968210;28;9364;-71
2023/01/05 07:14:09;;;;;;;;;;;;;;;25.70;42.80;94999.53;4963794;28;7010;-70
2023/01/05 07:16:35;;;;;;;;;;;;;;;25.71;42.40;95003.75;4985205;28;9050;-71
2023/01/05 07:19:01;;;;;;;;;;;;;;;25.72;42.94;95004.53;4983747;28;7490;-70
2023/01/05 07:21:27;;;;;;;;;;;;;;;25.69;42.29;95005.50;4962576;28;8601;-71
2023/01/05 07:23:53;;;;;;;;;;;;;;;25.67;42.58;95000.50;4970064;28;7175;-71
2023/01/05 07:26:21;;;;;;;;;;;;;;;25.70;42.84;95015.28;4967756;28;7194;-70
2023/01/05 07:28:47;;;;;;;;;;;;;;;25.72;42.09;95023.81;4983887;28;8740;-70
2023/01/05 07:31:15;;;;;;;;;;;;;;;25.72;42.06;95021.81;4967996;28;7139;-71
2023/01/05 07:33:57;;;;;;;;;;;;;;;25.72;42.79;95024.56;4957528;28;9319;-70
2023/01/05 07:36:26;;;;;;;;;;;;;;;25.73;42.98;95031.56;4976012;28;9153;-70
2023/01/05 07:38:54;;;;;;;;;;;;;;;25.75;42.79;95028.34;4987136;28;9088;-71
2023/01/05 07:41:21;;;;;;;;;;;;;;;25.76;41.81;95033.34;4989262;28;8813;-70
2023/01/05 07:44:17;;;;;;;;;;;;;;;25.76;42.88;95035.34;4973245;28;7803;-71
2023/01/05 07:47:03;;;;;;;;;;;;;;;25.76;42.17;95038.09;4953471;28;7365;-71
2023/01/05 07:49:48;;;;;;;;;;;;;;;25.72;43.00;95048.59;4929539;28;7095;-69
2023/01/05 07:52:24;;;;;;;;;;;;;;;25.71;42.85;95036.81;4945873;28;7053;-70
2023/01/05 07:55:07;;;;;;;;;;;;;;;25.75;41.82;95034.59;4959624;28;7102;-69
2023/01/05 07:57:48;;;;;;;;;;;;;;;25.76;42.45;95040.84;4956059;28;7818;-70
2023/01/05 08:00:33;;;;;;;;;;;;;;;25.76;42.77;95027.06;4953069;28;7310;-70
2023/01/05 08:03:01;;;;;;;;;;;;;;;25.73;42.62;95026.06;4951182;28;9632;-70
2023/01/05 08:05:34;;;;;;;;;;;;;;;25.73;42.67;95028.09;4932676;28;7345;-70
2023/01/05 08:08:00;;;;;;;;;;;;;;;25.72;42.67;95030.09;4952240;28;8935;-70
2023/01/05 08:11:08;;;;;;;;;;;;;;;25.73;41.92;95042.59;4953348;28;9490;-70
2023/01/05 08:16:18;;;;;;;;;;;;;;;25.71;42.27;95042.34;4937821;28;7348;-70
2023/01/05 08:18:53;;;;;;;;;;;;;;;25.72;42.01;95040.34;4920459;29;7133;-71
2023/01/05 08:21:27;;;;;;;;;;;;;;;25.70;42.64;95040.84;4930239;28;7238;-71
2023/01/05 08:24:06;;;;;;;;;;;;;;;25.72;42.92;95041.09;4924526;28;7015;-70
2023/01/05 08:26:33;;;;;;;;;;;;;;;25.74;42.95;95043.34;4929505;28;7119;-72
2023/01/05 08:29:01;;;;;;;;;;;;;;;25.74;42.33;95051.63;4933589;29;9087;-72
2023/01/05 08:31:32;;;;;;;;;;;;;;;25.74;42.76;95060.66;4928129;29;6941;-72
2023/01/05 08:34:01;;;;;;;;;;;;;;;25.74;42.75;95057.13;4926604;28;7327;-72
2023/01/05 08:36:30;;;;;;;;;;;;;;;25.72;42.59;95057.63;4911765;29;7243;-72
2023/01/05 08:38:56;;;;;;;;;;;;;;;25.72;42.39;95057.63;4923214;28;9142;-72
2023/01/05 08:41:30;;;;;;;;;;;;;;;25.73;42.59;95072.91;4908831;29;8972;-71
2023/01/05 08:43:59;;;;;;;;;;;;;;;25.73;42.70;95074.94;4926416;28;9485;-71
2023/01/05 08:46:34;;;;;;;;;;;;;;;25.73;43.59;95072.91;4931730;28;7260;-71
2023/01/05 08:49:03;;;;;;;;;;;;;;;25.74;42.76;95077.19;4967844;28;7149;-68
2023/01/05 08:51:30;;;;;;;;;;;;;;;25.73;42.64;95081.16;4967936;28;8250;-72
2023/01/05 08:53:57;;;;;;;;;;;;;;;25.73;43.09;95081.16;4967931;28;7436;-72
2023/01/05 08:56:25;;;;;;;;;;;;;;;25.75;43.39;95086.94;4956039;28;7254;-71
2023/01/05 08:58:51;;;;;;;;;;;;;;;25.75;43.29;95086.94;4968364;28;9439;-71
2023/01/05 09:01:20;;;;;;;;;;;;;;;25.76;43.12;95091.22;4973394;28;7000;-71
2023/01/05 09:03:51;;;;;;;;;;;;;;;25.76;43.32;95088.44;4978198;28;9472;-71
2023/01/05 09:06:17;;;;;;;;;;;;;;;25.78;43.44;95087.94;4965539;28;7212;-72
2023/01/05 09:08:47;;;;;;;;;;;;;;;25.80;42.88;95090.97;4968227;28;9005;-72
2023/01/05 09:11:21;;;;;;;;;;;;;;;25.78;43.18;95085.97;4976026;28;9021;-73
2023/01/05 09:13:50;;;;;;;;;;;;;;;25.77;43.83;95087.22;4976573;28;7113;-73
2023/01/05 09:16:20;;;;;;;;;;;;;;;25.76;43.69;95093.97;4967770;28;9456;-72
2023/01/05 09:18:46;;;;;;;;;;;;;;;25.78;43.47;95098.97;4969791;28;9404;-73
2023/01/05 09:21:15;;;;;;;;;;;;;;;25.75;43.17;95097.97;4972373;28;7282;-72
2023/01/05 09:23:51;;;;;;;;;;;;;;;25.76;43.82;95102.22;4976649;28;9122;-73
2023/01/05 09:26:19;;;;;;;;;;;;;;;25.74;44.00;95101.97;4970116;28;7299;-71
2023/01/05 09:28:51;;;;;;;;;;;;;;;25.75;43.88;95102.75;4970873;28;7275;-73
2023/01/05 09:31:21;;;;;;;;;;;;;;;25.74;43.38;95110.25;4985263;28;7297;-72
2023/01/05 09:33:47;;;;;;;;;;;;;;;25.75;43.82;95103.47;4966841;28;7015;-72
2023/01/05 09:36:16;;;;;;;;;;;;;;;25.76;43.98;95110.50;4966816;28;7282;-72
2023/01/05 09:38:46;;;;;;;;;;;;;;;25.76;44.51;95109.75;4964905;28;9183;-73
2023/01/05 09:41:35;;;;;;;;;;;;;;;25.76;44.36;95112.50;4962789;28;7045;-73
2023/01/05 09:44:20;;;;;;;;;;;;;;;25.77;43.86;95117.53;4978483;28;7507;-72
2023/01/05 09:46:52;;;;;;;;;;;;;;;25.76;44.19;95112.50;4953055;28;9075;-73
2023/01/05 09:49:21;;;;;;;;;;;;;;;25.77;44.35;95117.53;4953488;28;9863;-72
2023/01/05 09:51:58;;;;;;;;;;;;;;;25.80;43.59;95119.28;4964357;28;9217;-72
2023/01/05 09:54:28;;;;;;;;;;;;;;;25.79;43.67;95117.03;4969524;28;7603;-72
2023/01/05 09:56:58;;;;;;;;;;;;;;;25.81;43.85;95120.03;4981906;28;7212;-72
2023/01/05 09:59:34;;;;;;;;;;;;;;;25.82;44.17;95133.31;4959055;28;7404;-72
2023/01/05 10:02:13;;;;;;;;;;;;;;;25.83;44.65;95123.06;4962049;28;9412;-72
2023/01/05 10:04:40;;;;;;;;;;;;;;;25.83;44.33;95120.28;4966737;28;7461;-73
2023/01/05 10:07:19;;;;;;;;;;;;;;;25.85;44.53;95121.31;4974969;28;7507;-72
2023/01/05 10:09:47;;;;;;;;;;;;;;;25.89;44.32;95121.81;4982726;28;7236;-72
2023/01/05 10:15:20;;;;;;;;;;;;;;;25.91;44.23;95124.84;4961723;28;9145;-72
2023/01/05 10:17:50;;;;;;;;;;;;;;;25.93;44.24;95129.84;4962532;28;9104;-72
2023/01/05 10:20:41;;;;;;;;;;;;;;;25.92;44.34;95122.84;4959616;28;9219;-72
2023/01/05 10:23:21;;;;;;;;;;;;;;;25.92;44.06;95120.84;4960267;28;7298;-72
2023/01/05 10:26:27;;;;;;;;;;;;;;;25.93;43.33;95130.59;4970313;28;9046;-71
2023/01/05 10:28:59;;;;;;;;;;;;;;;25.94;43.38;95128.63;4891465;29;7295;-71
2023/01/05 10:31:42;;;;;;;;;;;;;;;25.95;43.55;95119.84;4890583;29;8218;-71
2023/01/05 10:34:54;;;;;;;;;;;;;;;25.97;43.97;95122.84;4909333;29;7177;-71
2023/01/05 10:37:52;;;;;;;;;;;;;;;25.97;43.94;95116.56;4884705;29;9065;-71
2023/01/05 10:40:50;;;;;;;;;;;;;;;26.00;43.84;95115.59;4905625;29;7358;-71
2023/01/05 10:43:32;;;;;;;;;;;;;;;26.00;44.05;95110.84;4896121;29;7802;-71
2023/01/05 10:46:00;;;;;;;;;;;;;;;25.97;43.99;95103.56;4881869;29;9145;-70
2023/01/05 10:48:33;;;;;;;;;;;;;;;25.97;43.42;95111.06;4885651;29;8740;-71
2023/01/05 10:51:01;;;;;;;;;;;;;;;25.95;43.95;95106.06;4884710;29;9204;-72
2023/01/05 10:53:28;;;;;;;;;;;;;;;25.95;44.12;95102.53;4909687;29;7360;-72
2023/01/05 10:56:05;;;;;;;;;;;;;;;25.94;44.54;95096.28;4896240;29;9244;-71
2023/01/05 10:58:39;;;;;;;;;;;;;;;25.91;43.80;95091.75;4887820;29;7352;-71
2023/01/05 11:01:46;;;;;;;;;;;;;;;25.93;44.32;95094.78;4910367;29;8560;-72
2023/01/05 11:04:20;;;;;;;;;;;;;;;25.91;44.92;95091.00;4911217;29;7940;-72
2023/01/05 11:07:03;;;;;;;;;;;;;;;25.91;45.24;95097.28;4970574;28;8962;-72
2023/01/05 11:09:40;;;;;;;;;;;;;;;25.92;44.10;95098.03;4985890;28;8746;-72
2023/01/05 11:12:26;;;;;;;;;;;;;;;25.93;44.72;95105.03;4954720;28;8573;-72
2023/01/05 11:14:56;;;;;;;;;;;;;;;25.94;44.10;95098.28;4987458;28;7036;-72
2023/01/05 11:17:26;;;;;;;;;;;;;;;25.95;44.72;95094.28;4968528;28;7469;-72
2023/01/05 11:20:18;;;;;;;;;;;;;;;25.96;44.61;95091.03;4970962;28;7640;-71
2023/01/05 11:22:52;;;;;;;;;;;;;;;25.96;44.41;95093.03;4964830;28;7071;-72
2023/01/05 11:25:38;;;;;;;;;;;;;;;25.98;44.50;95088.53;4965735;28;8779;-71
2023/01/05 11:28:39;;;;;;;;;;;;;;;25.96;43.84;95088.28;4969268;28;7133;-72
2023/01/05 11:31:51;;;;;;;;;;;;;;;26.02;44.36;95083.53;4969578;28;8987;-72
2023/01/05 11:34:57;;;;;;;;;;;;;;;26.04;44.46;95083.78;4979505;28;8977;-73
2023/01/05 11:37:27;;;;;;;;;;;;;;;26.09;43.47;95091.34;4968768;28;9325;-72
2023/01/05 11:40:26;;;;;;;;;;;;;;;26.08;43.98;95086.28;4966356;28;7390;-72
2023/01/05 11:43:11;;;;;;;;;;;;;;;26.10;43.81;95081.06;4889914;29;9248;-72
2023/01/05 11:45:56;;;;;;;;;;;;;;;26.09;43.57;95074.81;4893202;29;7874;-72
2023/01/05 11:48:27;;;;;;;;;;;;;;;26.13;43.68;95074.56;4893235;29;9022;-72
2023/01/05 11:50:57;;;;;;;;;;;;;;;26.13;44.08;95078.06;4891054;29;8823;-72
2023/01/05 11:53:41;;;;;;;;;;;;;;;26.12;44.12;95076.56;4888021;29;6997;-72
2023/01/05 11:56:20;;;;;;;;;;;;;;;26.13;43.35;95074.56;4874615;29;7290;-72
2023/01/05 11:58:54;;;;;;;;;;;;;;;26.13;44.15;95077.31;4891356;29;8755;-69
2023/01/05 12:01:58;;;;;;;;;;;;;;;26.10;43.65;95075.53;4895811;29;9012;-70
2023/01/05 12:04:33;;;;;;;;;;;;;;;26.07;43.79;95073.78;4878084;29;8211;-69
2023/01/05 12:07:24;;;;;;;;;;;;;;;26.08;43.46;95083.53;4902315;29;7205;-69
2023/01/05 12:10:14;;;;;;;;;;;;;;;26.06;43.84;95073.00;4896204;29;9346;-69
2023/01/05 12:13:07;;;;;;;;;;;;;;;26.09;43.27;95069.31;4893333;29;7383;-68
2023/01/05 12:16:02;;;;;;;;;;;;;;;26.11;43.86;95072.31;4896544;29;7044;-68
2023/01/05 12:18:35;;;;;;;;;;;;;;;26.15;43.25;95067.31;4897534;28;9413;-68
2023/01/05 12:21:25;;;;;;;;;;;;;;;26.17;43.43;95070.31;4968702;28;7527;-68
2023/01/05 12:24:22;;;;;;;;;;;;;;;26.12;43.92;95057.25;4972024;28;7218;-69
2023/01/05 12:27:36;;;;;;;;;;;;;;;26.09;44.27;95066.53;4970208;28;7488;-69
2023/01/05 12:30:11;;;;;;;;;;;;;;;26.10;44.45;95057.00;4962726;28;9750;-69
2023/01/05 12:32:43;;;;;;;;;;;;;;;26.12;44.42;95064.81;4964321;28;9589;-69
2023/01/05 12:38:37;;;;;;;;;;;;;;;26.10;44.05;95053.50;4969105;28;7076;-67
2023/01/05 12:41:26;;;;;;;;;;;;;;;26.10;43.83;95048.72;4989511;28;7680;-66
2023/01/05 12:44:30;;;;;;;;;;;;;;;26.10;43.56;95048.72;4964016;28;8965;-66
2023/01/05 12:47:35;;;;;;;;;;;;;;;26.09;43.70;95043.72;4968093;28;7501;-66
2023/01/05 12:50:25;;;;;;;;;;;;;;;26.10;44.14;95043.22;4889863;29;9046;-66
2023/01/05 12:53:01;;;;;;;;;;;;;;;26.13;43.90;95036.72;4879613;29;7032;-66
2023/01/05 12:55:40;;;;;;;;;;;;;;;26.11;43.79;95036.47;4886982;29;7039;-66
2023/01/05 12:58:17;;;;;;;;;;;;;;;26.11;43.28;95033.72;4876213;29;6996;-66
2023/01/05 13:00:48;;;;;;;;;;;;;;;26.12;43.39;95034.47;4877629;29;9249;-66
2023/01/05 13:03:34;;;;;;;;;;;;;;;26.11;43.17;95033.72;4896011;29;6995;-66
2023/01/05 13:06:25;;;;;;;;;;;;;;;26.09;44.09;95033.47;4866335;29;7567;-66
2023/01/05 13:09:21;;;;;;;;;;;;;;;26.10;43.54;95042.47;4880855;29;9353;-66
2023/01/05 13:12:35;;;;;;;;;;;;;;;26.09;43.82;95047.25;4888725;29;7222;-67
2023/01/05 13:15:15;;;;;;;;;;;;;;;26.10;43.78;95045.22;4878273;29;7072;-69
2023/01/05 13:17:55;;;;;;;;;;;;;;;26.10;43.23;95023.94;4872036;29;8312;-69
2023/01/05 13:20:38;;;;;;;;;;;;;;;26.10;44.02;95040.47;4862733;29;9288;-69
2023/01/05 13:23:29;;;;;;;;;;;;;;;26.09;43.54;95044.50;4877496;29;7032;-69
2023/01/05 13:26:18;;;;;;;;;;;;;;;26.09;43.65;95041.72;4894830;29;9088;-69
2023/01/05 13:28:55;;;;;;;;;;;;;;;26.10;43.54;95039.72;4918617;29;7885;-69
2023/01/05 13:31:48;;;;;;;;;;;;;;;26.11;43.78;95033.72;4918609;29;7488;-69
2023/01/05 13:34:52;;;;;;;;;;;;;;;26.10;44.23;95034.19;4933599;28;7323;-69
2023/01/05 13:37:50;;;;;;;;;;;;;;;26.10;44.06;95037.72;4869505;29;7079;-69
2023/01/05 13:40:30;;;;;;;;;;;;;;;26.10;44.06;95040.47;4877675;29;9052;-69
2023/01/05 13:42:58;;;;;;;;;;;;;;;26.11;44.00;95042.00;4873817;29;7185;-69
2023/01/05 13:46:15;;;;;;;;;;;;;;;26.10;43.29;95037.72;4852149;29;7365;-69
2023/01/05 13:49:29;;;;;;;;;;;;;;;26.09;43.24;95036.22;4831325;29;7498;-69
2023/01/05 13:52:02;;;;;;;;;;;;;;;26.09;43.69;95044.50;4837187;29;8863;-69
2023/01/05 13:54:44;;;;;;;;;;;;;;;26.08;43.65;95042.19;4839593;29;7666;-69
2023/01/05 13:57:34;;;;;;;;;;;;;;;26.07;44.04;95038.69;4857250;29;7015;-69
2023/01/05 14:00:07;;;;;;;;;;;;;;;26.09;43.47;95046.50;4839884;29;9271;-69
2023/01/05 14:02:40;;;;;;;;;;;;;;;26.10;43.89;95042.47;4855882;29;7920;-69
2023/01/05 14:05:31;;;;;;;;;;;;;;;26.11;43.61;95043.97;4842510;29;8776;-69
2023/01/05 14:08:28;;;;;;;;;;;;;;;26.12;44.02;95037.22;4849275;29;7138;-69
2023/01/05 14:11:13;;;;;;;;;;;;;;;26.12;43.83;95040.72;4844193;29;8036;-69
2023/01/05 14:13:53;;;;;;;;;;;;;;;26.13;43.88;95039.47;4894797;29;9174;-69
2023/01/05 14:16:42;;;;;;;;;;;;;;;26.14;43.68;95040.25;4907519;29;7271;-68
2023/01/05 14:19:24;;;;;;;;;;;;;;;26.15;43.75;95036.22;4935195;28;7910;-69
2023/01/05 14:21:50;;;;;;;;;;;;;;;26.16;43.57;95041.22;4970195;28;9284;-69
2023/01/05 14:24:37;;;;;;;;;;;;;;;26.16;43.50;95046.00;4956227;28;9024;-69